Time;durP1;ratioP1;P1;durP2;ratioP2;P2;SDS_P1;SDS_P2;PMS_P1;PMS_P2;Temp;Humidity;BMP_temperature;BMP_pressure;BME280_temperature;BME280_humidity;BME280_pressure;Samples;Min_cycle;Max_cycle;Signal;HPM_P1;HPM_P2
2023/06/10 00:00:36;;;;;;;13.13;6.45;;;16.90;99.90;;;;;;5122016;28;20071;-57
2023/06/10 00:03:02;;;;;;;11.02;6.00;;;16.90;99.90;;;;;;5121704;28;20036;-58
2023/06/10 00:05:31;;;;;;;9.85;5.43;;;16.90;99.90;;;;;;5121374;28;20112;-58
2023/06/10 00:07:56;;;;;;;12.90;6.53;;;16.90;99.90;;;;;;5121295;28;20521;-57
2023/06/10 00:10:24;;;;;;;11.50;5.70;;;16.90;99.90;;;;;;5121401;28;20040;-58
2023/06/10 00:12:51;;;;;;;10.15;4.85;;;16.80;99.90;;;;;;5121694;28;20048;-57
2023/06/10 00:15:17;;;;;;;9.35;5.78;;;16.80;99.90;;;;;;5121234;28;20069;-57
2023/06/10 00:17:43;;;;;;;11.10;5.00;;;16.80;99.90;;;;;;5121488;28;20052;-58
2023/06/10 00:20:11;;;;;;;10.27;5.22;;;16.70;99.90;;;;;;5121542;28;20035;-58
2023/06/10 00:22:39;;;;;;;12.38;5.53;;;16.70;99.90;;;;;;5121207;28;20047;-58
2023/06/10 00:25:06;;;;;;;9.75;5.30;;;16.70;99.90;;;;;;5121034;28;20047;-58
2023/06/10 00:27:34;;;;;;;9.85;4.90;;;16.70;99.90;;;;;;5119812;28;20081;-58
2023/06/10 00:30:06;;;;;;;11.13;5.63;;;16.70;99.90;;;;;;5121610;28;20048;-57
2023/06/10 00:32:33;;;;;;;13.35;5.90;;;16.70;99.90;;;;;;5120558;27;20036;-57
2023/06/10 00:34:58;;;;;;;11.32;5.47;;;16.70;99.90;;;;;;5119548;28;20059;-57
2023/06/10 00:37:24;;;;;;;12.70;5.80;;;16.60;99.90;;;;;;5121045;28;20048;-57
2023/06/10 00:39:50;;;;;;;11.10;5.68;;;16.60;99.90;;;;;;5120873;27;20054;-58
2023/06/10 00:42:15;;;;;;;10.90;5.88;;;16.50;99.90;;;;;;5119633;28;20519;-58
2023/06/10 00:44:41;;;;;;;10.75;5.35;;;16.50;99.90;;;;;;5120444;28;21712;-59
2023/06/10 00:47:07;;;;;;;11.02;5.45;;;16.50;99.90;;;;;;5121186;28;20059;-58
2023/06/10 00:49:34;;;;;;;9.70;5.57;;;16.50;99.90;;;;;;5120299;28;20092;-57
2023/06/10 00:52:02;;;;;;;10.80;5.60;;;16.50;99.90;;;;;;5120852;28;20047;-58
2023/06/10 00:54:28;;;;;;;13.18;6.07;;;16.40;99.90;;;;;;5120588;28;20107;-58
2023/06/10 00:56:54;;;;;;;9.50;5.80;;;16.30;99.90;;;;;;5120511;28;20052;-57
2023/06/10 00:59:20;;;;;;;10.70;5.97;;;16.30;99.90;;;;;;5120670;28;20099;-58
2023/06/10 01:01:47;;;;;;;11.98;6.22;;;16.30;99.90;;;;;;5119770;28;20047;-58
2023/06/10 01:04:13;;;;;;;10.90;6.40;;;16.20;99.90;;;;;;5120755;28;20403;-57
2023/06/10 01:06:47;;;;;;;11.05;5.70;;;16.20;99.90;;;;;;5120011;28;20459;-57
2023/06/10 01:09:45;;;;;;;10.65;6.07;;;16.10;99.90;;;;;;5120525;28;20059;-57
2023/06/10 01:12:35;;;;;;;13.00;6.40;;;16.10;99.90;;;;;;5112034;27;20079;-58
2023/06/10 01:15:02;;;;;;;14.85;6.47;;;16.00;99.90;;;;;;5119860;28;20052;-58
2023/06/10 01:17:30;;;;;;;10.38;6.63;;;15.90;99.90;;;;;;5120553;28;20079;-58
2023/06/10 01:19:59;;;;;;;12.45;6.65;;;15.90;99.90;;;;;;5118760;28;20071;-57
2023/06/10 01:22:28;;;;;;;12.25;6.97;;;15.90;99.90;;;;;;5119957;28;20068;-58
2023/06/10 01:24:58;;;;;;;13.82;7.30;;;15.90;99.90;;;;;;5119556;27;20052;-58
2023/06/10 01:27:27;;;;;;;11.65;7.07;;;15.80;99.90;;;;;;5119772;28;20424;-56
2023/06/10 01:29:59;;;;;;;12.98;7.10;;;15.80;99.90;;;;;;5120507;28;20106;-57
2023/06/10 01:32:34;;;;;;;11.90;6.88;;;15.70;99.90;;;;;;5119253;28;20069;-57
2023/06/10 01:35:02;;;;;;;13.13;6.72;;;15.70;99.90;;;;;;5119823;28;20118;-57
2023/06/10 01:37:29;;;;;;;12.20;7.40;;;15.70;99.90;;;;;;5119528;28;20071;-58
2023/06/10 01:39:58;;;;;;;11.57;7.20;;;15.60;99.90;;;;;;5119977;28;20105;-59
2023/06/10 01:42:25;;;;;;;13.18;6.97;;;15.60;99.90;;;;;;5119598;28;20043;-58
2023/06/10 01:44:51;;;;;;;10.55;6.38;;;15.60;99.90;;;;;;5119212;28;20043;-58
2023/06/10 01:47:17;;;;;;;14.80;7.22;;;15.50;99.90;;;;;;5119092;28;20035;-58
2023/06/10 01:49:43;;;;;;;12.65;7.40;;;15.50;99.90;;;;;;5119132;28;20655;-58
2023/06/10 01:52:09;;;;;;;15.52;7.60;;;15.40;99.90;;;;;;5119943;28;20047;-58
2023/06/10 01:54:34;;;;;;;12.95;7.55;;;15.40;99.90;;;;;;5119366;27;20047;-57
2023/06/10 01:57:01;;;;;;;10.85;6.72;;;15.30;99.90;;;;;;5119662;28;20036;-57
2023/06/10 01:59:27;;;;;;;13.40;7.88;;;15.30;99.90;;;;;;5119419;28;20078;-58
2023/06/10 02:01:52;;;;;;;11.63;6.75;;;15.20;99.90;;;;;;5118936;28;20043;-58
2023/06/10 02:04:18;;;;;;;13.43;8.25;;;15.20;99.90;;;;;;5118283;28;20052;-57
2023/06/10 02:06:45;;;;;;;12.45;7.57;;;15.10;99.90;;;;;;5118981;28;20047;-57
2023/06/10 02:09:10;;;;;;;13.13;7.50;;;15.10;99.90;;;;;;5118030;28;20091;-57
2023/06/10 02:11:36;;;;;;;11.50;7.50;;;15.10;99.90;;;;;;5119160;28;20074;-58
2023/06/10 02:14:02;;;;;;;12.05;7.25;;;15.10;99.90;;;;;;5118851;28;20064;-57
2023/06/10 02:16:27;;;;;;;12.85;7.50;;;15.00;99.90;;;;;;5118878;28;20047;-58
2023/06/10 02:18:54;;;;;;;13.70;7.85;;;15.00;99.90;;;;;;5118002;28;20047;-57
2023/06/10 02:21:20;;;;;;;11.77;6.97;;;14.90;99.90;;;;;;5119142;28;20080;-58
2023/06/10 02:23:46;;;;;;;13.00;7.65;;;14.90;99.90;;;;;;5118484;28;20079;-58
2023/06/10 02:26:11;;;;;;;12.65;7.88;;;14.90;99.90;;;;;;5119260;28;20481;-57
2023/06/10 02:28:37;;;;;;;13.50;8.25;;;14.80;99.90;;;;;;5117431;28;20077;-58
2023/06/10 02:31:03;;;;;;;14.68;8.10;;;14.80;99.90;;;;;;5118665;28;20039;-57
2023/06/10 02:33:28;;;;;;;11.73;7.40;;;14.80;99.90;;;;;;5118278;28;20054;-58
2023/06/10 02:35:55;;;;;;;11.52;7.07;;;14.70;99.90;;;;;;5117340;28;20039;-57
2023/06/10 02:38:21;;;;;;;14.52;7.50;;;14.70;99.90;;;;;;5118536;28;20491;-56
2023/06/10 02:40:46;;;;;;;10.80;6.53;;;14.70;99.90;;;;;;5118402;28;20078;-56
2023/06/10 02:43:12;;;;;;;11.27;7.07;;;14.70;99.90;;;;;;5118882;28;20047;-57
2023/06/10 02:45:38;;;;;;;12.27;6.85;;;14.60;99.90;;;;;;5118378;28;20036;-57
2023/06/10 02:48:03;;;;;;;12.25;7.30;;;14.60;99.90;;;;;;5118545;28;20035;-57
2023/06/10 02:50:29;;;;;;;10.65;6.60;;;14.60;99.90;;;;;;5118260;28;20074;-57
2023/06/10 02:52:55;;;;;;;10.25;6.68;;;14.50;99.90;;;;;;5118509;28;20044;-57
2023/06/10 02:55:21;;;;;;;12.73;7.05;;;14.40;99.90;;;;;;5118645;28;20036;-57
2023/06/10 02:57:46;;;;;;;10.75;6.43;;;14.40;99.90;;;;;;5118367;28;20040;-57
2023/06/10 03:00:14;;;;;;;10.13;6.30;;;14.40;99.90;;;;;;5118711;28;20044;-57
2023/06/10 03:02:39;;;;;;;13.38;6.55;;;14.40;99.90;;;;;;5117933;28;20091;-57
2023/06/10 03:05:09;;;;;;;16.95;7.78;;;14.40;99.90;;;;;;5118228;28;20073;-58
2023/06/10 03:07:36;;;;;;;13.38;6.15;;;14.40;99.90;;;;;;5118324;28;20122;-57
2023/06/10 03:10:01;;;;;;;13.38;7.03;;;14.40;99.90;;;;;;5118349;28;20040;-58
2023/06/10 03:12:27;;;;;;;12.02;6.60;;;14.30;99.90;;;;;;5118281;28;20408;-57
2023/06/10 03:14:53;;;;;;;13.98;6.38;;;14.30;99.90;;;;;;5118099;28;20056;-57
2023/06/10 03:17:18;;;;;;;10.30;5.75;;;14.30;99.90;;;;;;5118400;28;20044;-58
2023/06/10 03:19:44;;;;;;;13.90;6.43;;;14.20;99.90;;;;;;5117985;28;20046;-56
2023/06/10 03:22:15;;;;;;;12.23;6.88;;;14.20;99.90;;;;;;5118462;28;20039;-57
2023/06/10 03:24:40;;;;;;;13.63;6.47;;;14.20;99.90;;;;;;5117857;28;20069;-57
2023/06/10 03:27:10;;;;;;;12.32;6.38;;;14.20;99.90;;;;;;5118371;28;20043;-57
2023/06/10 03:29:39;;;;;;;12.95;6.47;;;14.10;99.90;;;;;;5117882;28;20422;-57
2023/06/10 03:32:06;;;;;;;12.18;6.50;;;14.10;99.90;;;;;;5121219;28;20050;-57
2023/06/10 03:34:31;;;;;;;13.05;6.60;;;14.10;99.90;;;;;;5122396;28;20065;-58
2023/06/10 03:36:58;;;;;;;11.52;6.57;;;14.10;99.90;;;;;;5122209;27;20039;-57
2023/06/10 03:39:24;;;;;;;12.20;6.28;;;14.10;99.90;;;;;;5121882;27;20418;-57
2023/06/10 03:41:50;;;;;;;12.73;6.60;;;14.00;99.90;;;;;;5121954;28;20050;-57
2023/06/10 03:44:16;;;;;;;12.52;6.32;;;14.00;99.90;;;;;;5120626;28;20113;-57
2023/06/10 03:46:42;;;;;;;13.60;6.60;;;14.00;99.90;;;;;;5121926;28;20040;-57
2023/06/10 03:49:09;;;;;;;12.73;6.85;;;14.00;99.90;;;;;;5121554;28;20040;-58
2023/06/10 03:51:35;;;;;;;12.82;6.43;;;14.00;99.90;;;;;;5122320;28;20055;-58
2023/06/10 03:54:01;;;;;;;10.10;6.00;;;13.90;99.90;;;;;;5121752;28;20058;-57
2023/06/10 03:56:28;;;;;;;12.35;6.35;;;14.00;99.90;;;;;;5121798;28;20028;-58
2023/06/10 03:58:54;;;;;;;15.02;6.93;;;14.00;99.90;;;;;;5121477;28;20059;-58
2023/06/10 04:01:20;;;;;;;12.27;7.18;;;14.00;99.90;;;;;;5120424;28;20071;-58
2023/06/10 04:03:48;;;;;;;11.98;6.90;;;14.00;99.90;;;;;;5121397;28;20039;-57
2023/06/10 04:06:14;;;;;;;12.90;6.55;;;14.00;99.90;;;;;;5121264;28;20039;-58
2023/06/10 04:08:40;;;;;;;11.98;6.95;;;14.00;99.90;;;;;;5121945;28;20047;-57
2023/06/10 04:11:06;;;;;;;13.23;6.70;;;14.00;99.90;;;;;;5120023;28;20148;-58
2023/06/10 04:13:31;;;;;;;13.02;7.30;;;14.00;99.90;;;;;;5120927;28;20094;-58
2023/06/10 04:15:57;;;;;;;14.52;7.28;;;14.10;99.90;;;;;;5121438;28;20035;-58
2023/06/10 04:18:23;;;;;;;15.82;6.57;;;14.20;99.90;;;;;;5121225;28;20051;-58
2023/06/10 04:20:48;;;;;;;14.35;7.25;;;14.20;99.90;;;;;;5121316;28;20035;-57
2023/06/10 04:23:14;;;;;;;14.75;8.02;;;14.20;99.90;;;;;;5120985;28;20047;-58
2023/06/10 04:25:40;;;;;;;13.82;6.93;;;14.30;99.90;;;;;;5121537;28;20092;-58
2023/06/10 04:28:05;;;;;;;14.38;7.65;;;14.30;99.90;;;;;;5120841;28;20047;-57
2023/06/10 04:30:31;;;;;;;14.73;6.72;;;14.40;99.90;;;;;;5121283;28;20099;-58
2023/06/10 04:32:57;;;;;;;12.70;6.88;;;14.40;99.90;;;;;;5120964;28;20047;-59
2023/06/10 04:35:23;;;;;;;16.15;7.88;;;14.50;99.90;;;;;;5120842;28;20063;-57
2023/06/10 04:37:49;;;;;;;13.55;6.90;;;14.50;99.90;;;;;;5121041;28;20036;-58
2023/06/10 04:40:16;;;;;;;13.73;6.55;;;14.60;99.90;;;;;;5119407;28;20050;-58
2023/06/10 04:42:41;;;;;;;14.18;7.60;;;14.60;99.90;;;;;;5120043;28;20055;-58
2023/06/10 04:45:08;;;;;;;12.98;7.50;;;14.70;99.90;;;;;;5120660;28;20049;-57
2023/06/10 04:47:34;;;;;;;14.43;7.20;;;14.80;99.90;;;;;;5120600;28;20059;-57
2023/06/10 04:50:04;;;;;;;12.13;6.95;;;14.90;99.90;;;;;;5120733;28;20040;-59
2023/06/10 04:52:29;;;;;;;12.30;6.97;;;15.00;99.90;;;;;;5120492;28;20051;-57
2023/06/10 04:54:56;;;;;;;14.57;7.32;;;15.00;99.90;;;;;;5120615;28;20040;-58
2023/06/10 04:57:21;;;;;;;14.35;7.85;;;15.10;99.90;;;;;;5120377;28;20122;-57
2023/06/10 04:59:47;;;;;;;11.52;6.72;;;15.20;99.90;;;;;;5120892;28;20600;-57
2023/06/10 05:02:13;;;;;;;13.48;7.03;;;15.30;99.90;;;;;;5120182;28;20052;-58
2023/06/10 05:04:39;;;;;;;12.80;6.88;;;15.40;99.90;;;;;;5120638;28;20088;-57
2023/06/10 05:07:05;;;;;;;16.00;8.23;;;15.50;99.90;;;;;;5120414;28;20042;-58
2023/06/10 05:09:31;;;;;;;16.30;7.38;;;15.60;99.90;;;;;;5120143;28;20077;-58
2023/06/10 05:11:56;;;;;;;13.25;7.03;;;15.60;99.90;;;;;;5119895;28;20055;-57
2023/06/10 05:14:22;;;;;;;13.88;6.93;;;15.70;99.90;;;;;;5120241;28;20051;-58
2023/06/10 05:16:48;;;;;;;13.30;6.78;;;15.70;99.90;;;;;;5120530;28;20043;-57
2023/06/10 05:19:16;;;;;;;13.00;6.93;;;15.90;99.90;;;;;;5120056;28;20035;-57
2023/06/10 05:21:41;;;;;;;10.98;6.93;;;15.90;99.90;;;;;;5118950;28;20085;-58
2023/06/10 05:24:08;;;;;;;14.88;7.65;;;15.90;99.90;;;;;;5119892;28;20043;-57
2023/06/10 05:26:37;;;;;;;12.85;6.45;;;16.00;99.90;;;;;;5119737;28;20088;-57
2023/06/10 05:29:06;;;;;;;14.63;6.70;;;16.10;99.90;;;;;;5119973;28;20048;-57
2023/06/10 05:31:31;;;;;;;16.08;7.47;;;16.10;99.90;;;;;;5119626;28;20051;-57
2023/06/10 05:33:58;;;;;;;11.77;6.80;;;16.20;99.90;;;;;;5120151;28;20036;-57
2023/06/10 05:36:25;;;;;;;13.50;7.00;;;16.20;99.90;;;;;;5118127;28;20530;-58
2023/06/10 05:38:51;;;;;;;16.77;6.40;;;16.30;99.90;;;;;;5119811;28;20055;-57
2023/06/10 05:41:16;;;;;;;13.00;7.50;;;16.40;99.90;;;;;;5119744;28;20059;-57
2023/06/10 05:43:42;;;;;;;13.73;6.70;;;16.50;99.90;;;;;;5119264;28;20052;-57
2023/06/10 05:46:08;;;;;;;13.25;6.93;;;16.50;99.90;;;;;;5119725;28;20500;-56
2023/06/10 05:48:33;;;;;;;11.20;6.40;;;16.60;99.90;;;;;;5119685;28;20058;-58
2023/06/10 05:50:59;;;;;;;12.90;6.93;;;16.70;99.90;;;;;;5118811;27;20592;-57
2023/06/10 05:53:25;;;;;;;14.25;7.38;;;16.70;99.90;;;;;;5118443;28;20051;-57
2023/06/10 05:55:52;;;;;;;13.57;6.10;;;16.90;99.90;;;;;;5120007;28;20077;-58
2023/06/10 05:58:18;;;;;;;15.32;6.30;;;16.90;99.90;;;;;;5119350;28;20061;-58
2023/06/10 06:00:43;;;;;;;14.63;7.18;;;17.00;99.90;;;;;;5118973;28;20063;-57
2023/06/10 06:03:09;;;;;;;12.25;6.63;;;17.10;99.90;;;;;;5119220;28;20042;-57
2023/06/10 06:05:37;;;;;;;13.35;6.25;;;17.10;99.90;;;;;;5115553;28;20054;-57
2023/06/10 06:08:07;;;;;;;11.48;5.80;;;17.20;99.90;;;;;;5115821;28;20680;-57
2023/06/10 06:10:34;;;;;;;10.68;5.95;;;17.30;99.90;;;;;;5115589;28;20044;-58
2023/06/10 06:13:00;;;;;;;13.73;6.10;;;17.40;99.90;;;;;;5115805;28;20075;-54
2023/06/10 06:15:26;;;;;;;11.05;6.38;;;17.40;99.90;;;;;;5115515;28;20055;-58
2023/06/10 06:17:52;;;;;;;11.43;5.63;;;17.40;99.90;;;;;;5115270;28;20071;-56
2023/06/10 06:20:21;;;;;;;12.30;5.85;;;17.40;99.90;;;;;;5115448;28;20051;-58
2023/06/10 06:22:47;;;;;;;11.70;6.13;;;17.50;99.90;;;;;;5115702;28;20486;-57
2023/06/10 06:25:13;;;;;;;12.93;5.78;;;17.50;99.90;;;;;;5115464;28;20043;-57
2023/06/10 06:27:39;;;;;;;13.02;5.88;;;17.70;99.90;;;;;;5115477;28;20107;-57
2023/06/10 06:30:05;;;;;;;11.30;5.13;;;17.70;99.90;;;;;;5115497;28;20078;-58
2023/06/10 06:32:30;;;;;;;11.27;5.65;;;17.80;99.90;;;;;;5114885;28;20069;-57
2023/06/10 06:34:56;;;;;;;10.40;5.85;;;18.00;99.90;;;;;;5115450;28;20095;-57
2023/06/10 06:37:23;;;;;;;12.23;5.97;;;17.90;99.90;;;;;;5115102;28;20048;-57
2023/06/10 06:39:51;;;;;;;15.55;6.07;;;18.00;99.90;;;;;;5115511;27;20036;-57
2023/06/10 06:42:16;;;;;;;12.98;6.20;;;18.00;99.90;;;;;;5115110;28;20051;-58
2023/06/10 06:44:42;;;;;;;12.95;5.82;;;18.10;99.90;;;;;;5114823;28;20040;-58
2023/06/10 06:47:08;;;;;;;10.93;5.25;;;18.20;99.90;;;;;;5115773;28;20050;-58
2023/06/10 06:49:34;;;;;;;10.40;5.90;;;18.20;99.90;;;;;;5114867;27;20043;-58
2023/06/10 06:51:59;;;;;;;11.13;5.55;;;18.40;99.90;;;;;;5114802;28;20237;-57
2023/06/10 06:54:25;;;;;;;12.02;5.53;;;18.50;99.90;;;;;;5115005;28;20043;-62
2023/06/10 06:56:51;;;;;;;9.98;4.93;;;18.50;99.90;;;;;;5114936;28;20043;-57
2023/06/10 06:59:19;;;;;;;13.43;5.85;;;18.70;99.90;;;;;;5113562;28;20048;-57
2023/06/10 07:01:45;;;;;;;11.88;5.72;;;18.70;99.90;;;;;;5114543;28;20043;-58
2023/06/10 07:04:11;;;;;;;10.30;5.25;;;18.80;99.90;;;;;;5115030;28;20055;-58
2023/06/10 07:06:37;;;;;;;11.43;5.90;;;18.80;99.90;;;;;;5114326;28;20038;-59
2023/06/10 07:09:04;;;;;;;10.93;5.57;;;18.70;99.90;;;;;;5114961;28;20048;-58
2023/06/10 07:11:30;;;;;;;13.85;5.90;;;18.80;99.90;;;;;;5113601;28;20056;-58
2023/06/10 07:13:56;;;;;;;12.88;6.00;;;19.00;99.90;;;;;;5114760;28;20059;-58
2023/06/10 07:16:22;;;;;;;12.60;6.47;;;19.00;99.90;;;;;;5114502;28;20024;-57
2023/06/10 07:18:48;;;;;;;8.60;5.18;;;19.10;99.90;;;;;;5114422;28;20430;-58
2023/06/10 07:21:13;;;;;;;10.30;5.78;;;19.20;99.90;;;;;;5113779;28;20077;-58
2023/06/10 07:23:42;;;;;;;15.02;5.90;;;19.30;99.90;;;;;;5114553;28;20048;-57
2023/06/10 07:26:10;;;;;;;13.02;5.60;;;19.30;99.90;;;;;;5115119;28;20059;-58
2023/06/10 07:28:37;;;;;;;10.52;5.20;;;19.40;99.90;;;;;;5114753;28;20074;-57
2023/06/10 07:31:03;;;;;;;11.95;5.32;;;19.50;99.90;;;;;;5114529;28;20537;-57
2023/06/10 07:33:28;;;;;;;12.35;5.38;;;19.40;99.90;;;;;;5113079;28;20052;-57
2023/06/10 07:35:54;;;;;;;11.13;5.57;;;19.60;99.90;;;;;;5114675;28;20051;-57
2023/06/10 07:38:20;;;;;;;10.95;5.88;;;19.60;99.90;;;;;;5113894;28;20044;-58
2023/06/10 07:40:46;;;;;;;13.27;6.47;;;19.60;99.90;;;;;;5113633;28;20078;-58
2023/06/10 07:43:12;;;;;;;11.38;5.85;;;19.60;99.90;;;;;;5114892;28;20051;-55
2023/06/10 07:45:40;;;;;;;10.27;5.80;;;19.60;99.90;;;;;;5113297;28;20059;-58
2023/06/10 07:48:05;;;;;;;10.40;5.63;;;19.80;99.90;;;;;;5113964;28;20032;-57
2023/06/10 07:50:31;;;;;;;11.38;5.68;;;19.80;99.90;;;;;;5114524;28;20048;-57
2023/06/10 07:52:57;;;;;;;10.70;5.45;;;19.90;99.90;;;;;;5114313;28;20040;-58
2023/06/10 07:55:23;;;;;;;15.38;7.80;;;20.00;99.90;;;;;;5113381;28;20059;-57
2023/06/10 07:57:49;;;;;;;9.98;5.88;;;19.90;99.90;;;;;;5114105;28;20044;-58
2023/06/10 08:00:15;;;;;;;13.15;6.10;;;19.90;99.90;;;;;;5115591;28;20043;-57
2023/06/10 08:02:41;;;;;;;9.13;5.10;;;20.00;99.90;;;;;;5115915;28;20038;-57
2023/06/10 08:05:07;;;;;;;10.25;5.57;;;20.10;99.90;;;;;;5117391;28;20091;-57
2023/06/10 08:07:32;;;;;;;11.13;5.82;;;20.10;99.90;;;;;;5117355;28;20051;-58
2023/06/10 08:09:58;;;;;;;11.57;5.18;;;20.10;99.90;;;;;;5117494;28;20047;-58
2023/06/10 08:12:24;;;;;;;11.18;5.78;;;20.40;99.90;;;;;;5117824;28;20056;-57
2023/06/10 08:14:50;;;;;;;12.65;6.22;;;20.40;99.90;;;;;;5116968;28;20067;-57
2023/06/10 08:17:15;;;;;;;11.30;5.35;;;20.40;99.90;;;;;;5117689;28;20047;-57
2023/06/10 08:19:41;;;;;;;12.38;5.85;;;20.50;99.90;;;;;;5120493;28;20051;-57
2023/06/10 08:22:07;;;;;;;9.75;4.82;;;20.60;99.90;;;;;;5120757;28;20061;-58
2023/06/10 08:24:33;;;;;;;12.50;5.53;;;20.60;99.90;;;;;;5120458;28;20065;-60
2023/06/10 08:26:58;;;;;;;13.13;5.60;;;20.60;99.90;;;;;;5121071;28;20057;-58
2023/06/10 08:29:25;;;;;;;11.60;5.22;;;20.70;99.90;;;;;;5120572;28;20043;-57
2023/06/10 08:31:50;;;;;;;11.73;5.03;;;20.70;99.90;;;;;;5119592;28;20124;-58
2023/06/10 08:34:16;;;;;;;15.23;5.55;;;20.80;99.90;;;;;;5119677;28;20039;-58
2023/06/10 08:36:43;;;;;;;11.63;6.43;;;20.90;99.90;;;;;;5119630;28;20048;-57
2023/06/10 08:39:09;;;;;;;12.43;5.50;;;21.00;99.90;;;;;;5120451;28;20069;-58
2023/06/10 08:41:39;;;;;;;10.52;4.93;;;21.10;99.90;;;;;;5120442;28;20091;-58
2023/06/10 08:44:27;;;;;;;9.98;5.60;;;21.20;99.90;;;;;;5120231;28;20036;-58
2023/06/10 08:46:55;;;;;;;10.98;4.97;;;21.10;99.90;;;;;;5120499;28;20044;-57
2023/06/10 08:49:23;;;;;;;9.75;5.00;;;21.40;99.90;;;;;;5119741;28;20054;-58
2023/06/10 08:51:58;;;;;;;9.38;4.55;;;21.40;99.90;;;;;;5120311;28;20070;-57
2023/06/10 08:54:30;;;;;;;11.77;6.35;;;21.50;99.90;;;;;;5119848;28;20048;-57
2023/06/10 08:56:58;;;;;;;11.18;4.88;;;21.50;99.90;;;;;;5118046;28;20611;-57
2023/06/10 08:59:25;;;;;;;10.07;4.95;;;21.60;99.90;;;;;;5120474;28;20039;-57
2023/06/10 09:01:52;;;;;;;10.85;5.13;;;21.80;99.90;;;;;;5119451;28;20049;-57
2023/06/10 09:04:19;;;;;;;10.07;5.13;;;21.70;99.90;;;;;;5120870;28;20046;-58
2023/06/10 09:06:46;;;;;;;11.00;5.03;;;21.70;99.90;;;;;;5120326;28;20039;-57
2023/06/10 09:09:13;;;;;;;9.52;4.63;;;21.70;99.90;;;;;;5120310;28;20108;-58
2023/06/10 09:11:41;;;;;;;10.93;5.18;;;21.70;99.90;;;;;;5118743;28;20040;-59
2023/06/10 09:14:07;;;;;;;9.52;4.35;;;21.80;99.90;;;;;;5119738;28;20059;-56
2023/06/10 09:16:34;;;;;;;8.48;4.38;;;21.90;99.90;;;;;;5119926;28;20044;-58
2023/06/10 09:18:59;;;;;;;9.32;4.38;;;22.10;99.90;;;;;;5119767;28;20051;-56
2023/06/10 09:21:25;;;;;;;8.35;4.60;;;22.00;99.90;;;;;;5120022;28;20048;-58
2023/06/10 09:23:52;;;;;;;12.02;5.57;;;22.10;99.90;;;;;;5119321;28;20043;-60
2023/06/10 09:26:18;;;;;;;9.43;4.50;;;22.10;99.90;;;;;;5119893;27;20059;-57
2023/06/10 09:28:48;;;;;;;15.50;6.80;;;22.10;99.90;;;;;;5119569;28;20047;-57
2023/06/10 09:31:18;;;;;;;17.05;6.43;;;22.10;99.90;;;;;;5119470;28;20077;-57
2023/06/10 09:33:44;;;;;;;10.60;5.10;;;22.20;99.90;;;;;;5119610;28;20044;-57
2023/06/10 09:36:10;;;;;;;11.55;4.93;;;22.30;99.90;;;;;;5119390;28;20035;-57
2023/06/10 09:38:36;;;;;;;12.15;4.80;;;22.50;99.90;;;;;;5120052;28;20054;-58
2023/06/10 09:41:03;;;;;;;11.43;5.32;;;22.70;99.90;;;;;;5119588;28;20095;-57
2023/06/10 09:43:40;;;;;;;18.92;6.68;;;22.60;99.90;;;;;;5101337;28;20050;-58
2023/06/10 09:46:07;;;;;;;14.43;5.50;;;22.70;99.90;;;;;;5119335;28;20123;-57
2023/06/10 09:48:42;;;;;;;41.83;11.70;;;22.60;99.90;;;;;;5119193;28;20038;-58
2023/06/10 09:51:12;;;;;;;11.40;4.75;;;22.80;99.90;;;;;;5119482;28;20040;-57
2023/06/10 09:53:38;;;;;;;32.30;10.00;;;22.70;99.90;;;;;;5118913;28;20047;-58
2023/06/10 09:56:05;;;;;;;15.35;6.07;;;22.90;99.90;;;;;;5119397;28;20047;-57
2023/06/10 09:58:38;;;;;;;12.98;5.20;;;23.00;99.90;;;;;;5119237;28;20043;-58
2023/06/10 10:01:13;;;;;;;10.60;4.93;;;23.00;99.90;;;;;;5118865;28;20056;-58
2023/06/10 10:03:50;;;;;;;11.63;4.70;;;23.00;99.90;;;;;;5119053;28;20054;-57
2023/06/10 10:06:17;;;;;;;10.85;5.28;;;23.30;99.90;;;;;;5118706;28;20047;-58
2023/06/10 10:08:44;;;;;;;14.20;5.53;;;23.10;99.90;;;;;;5119186;28;20507;-58
2023/06/10 10:11:11;;;;;;;11.02;5.95;;;23.30;99.90;;;;;;5118887;28;20705;-58
2023/06/10 10:13:38;;;;;;;11.65;6.47;;;23.30;99.90;;;;;;5118490;28;20496;-58
2023/06/10 10:16:10;;;;;;;12.25;5.75;;;23.30;99.60;;;;;;5118620;28;20054;-57
2023/06/10 10:18:41;;;;;;;13.40;5.85;;;23.30;99.90;;;;;;5118400;27;20048;-58
2023/06/10 10:21:12;;;;;;;10.57;4.78;;;23.40;99.90;;;;;;5119234;28;20073;-58
2023/06/10 10:23:50;;;;;;;10.35;5.03;;;23.50;99.90;;;;;;5118294;28;20043;-58
2023/06/10 10:26:17;;;;;;;9.50;4.45;;;23.60;99.90;;;;;;5117135;28;20065;-58
2023/06/10 10:28:51;;;;;;;9.50;4.85;;;23.60;99.90;;;;;;5117523;28;20047;-58
2023/06/10 10:31:19;;;;;;;9.13;4.72;;;23.80;99.90;;;;;;5118248;28;20103;-58
2023/06/10 10:34:02;;;;;;;10.75;5.07;;;23.90;99.90;;;;;;5118691;28;20047;-57
2023/06/10 10:36:28;;;;;;;10.63;4.72;;;23.80;99.90;;;;;;5116400;28;20040;-58
2023/06/10 10:38:55;;;;;;;11.32;4.85;;;23.90;99.90;;;;;;5117272;28;20074;-57
2023/06/10 10:41:23;;;;;;;8.48;4.40;;;23.90;99.90;;;;;;5116160;28;20051;-57
2023/06/10 10:43:51;;;;;;;10.38;4.20;;;23.90;99.50;;;;;;5115401;28;20032;-58
2023/06/10 10:46:17;;;;;;;8.07;4.07;;;24.20;99.90;;;;;;5116518;28;20031;-57
2023/06/10 10:48:44;;;;;;;9.05;3.75;;;24.30;99.50;;;;;;5116717;28;20067;-56
2023/06/10 10:51:10;;;;;;;10.93;4.32;;;24.30;99.20;;;;;;5117612;28;20050;-57
2023/06/10 10:53:39;;;;;;;8.75;3.83;;;24.40;98.90;;;;;;5116463;28;20100;-56
2023/06/10 10:56:20;;;;;;;8.80;3.83;;;24.40;99.00;;;;;;5116152;28;20316;-57
2023/06/10 10:59:05;;;;;;;9.02;3.65;;;24.50;99.00;;;;;;5115356;28;20394;-56
2023/06/10 11:01:41;;;;;;;9.52;4.40;;;24.50;97.70;;;;;;5115748;28;20052;-56
2023/06/10 11:04:09;;;;;;;9.07;3.67;;;24.60;97.20;;;;;;5115889;28;20043;-56
2023/06/10 11:06:35;;;;;;;9.02;4.05;;;24.80;97.50;;;;;;5117480;28;20073;-57
2023/06/10 11:09:20;;;;;;;7.35;3.50;;;24.70;96.90;;;;;;5118008;28;20391;-57
2023/06/10 11:11:50;;;;;;;9.27;4.13;;;24.60;96.90;;;;;;5117649;28;20036;-56
2023/06/10 11:14:29;;;;;;;7.78;3.45;;;24.70;97.10;;;;;;5117729;28;20555;-56
2023/06/10 11:16:59;;;;;;;8.90;4.03;;;24.80;96.40;;;;;;5118476;28;20040;-56
2023/06/10 11:19:34;;;;;;;8.60;4.53;;;25.00;96.90;;;;;;5116191;28;20089;-56
2023/06/10 11:22:01;;;;;;;14.70;5.03;;;24.90;96.10;;;;;;5117875;28;20096;-57
2023/06/10 11:24:29;;;;;;;17.10;4.75;;;24.80;97.70;;;;;;5117601;28;20470;-57
2023/06/10 11:26:55;;;;;;;14.13;5.43;;;25.00;97.70;;;;;;5117605;28;20107;-57
2023/06/10 11:29:21;;;;;;;14.05;5.20;;;25.10;98.20;;;;;;5118175;28;20081;-57
2023/06/10 11:31:51;;;;;;;9.70;3.70;;;25.10;97.90;;;;;;5116870;28;20039;-57
2023/06/10 11:34:26;;;;;;;10.32;4.53;;;25.10;97.10;;;;;;5116386;28;20463;-57
2023/06/10 11:36:53;;;;;;;12.43;4.13;;;25.10;96.50;;;;;;5117019;28;20239;-57
2023/06/10 11:39:21;;;;;;;14.65;5.72;;;25.10;97.20;;;;;;5117347;28;20055;-56
2023/06/10 11:41:47;;;;;;;14.13;5.05;;;25.20;96.80;;;;;;5117070;28;20249;-56
2023/06/10 11:44:13;;;;;;;10.95;5.43;;;25.20;95.50;;;;;;5116553;28;20576;-57
2023/06/10 11:46:42;;;;;;;8.18;4.47;;;25.30;95.30;;;;;;5116754;28;20047;-57
2023/06/10 11:49:08;;;;;;;9.23;4.82;;;25.20;95.50;;;;;;5116680;28;20039;-57
2023/06/10 11:51:36;;;;;;;8.50;4.00;;;25.30;96.00;;;;;;5118507;28;20039;-56
2023/06/10 11:54:03;;;;;;;12.27;5.20;;;25.00;95.00;;;;;;5121323;28;20043;-57
2023/06/10 11:56:30;;;;;;;10.40;4.13;;;25.30;95.60;;;;;;5121372;28;20039;-57
2023/06/10 11:58:59;;;;;;;12.43;4.80;;;25.30;95.20;;;;;;5119737;28;20044;-57
2023/06/10 12:01:26;;;;;;;8.10;3.80;;;25.30;95.70;;;;;;5120468;28;20100;-57
2023/06/10 12:04:13;;;;;;;9.18;4.05;;;25.60;95.60;;;;;;5121666;28;20039;-57
2023/06/10 12:06:47;;;;;;;8.25;3.83;;;25.60;95.90;;;;;;5120518;28;20067;-56
2023/06/10 12:09:33;;;;;;;16.33;5.43;;;25.70;95.60;;;;;;5121734;28;20044;-57
2023/06/10 12:12:04;;;;;;;9.30;4.38;;;25.60;95.80;;;;;;5119980;27;20046;-57
2023/06/10 12:14:58;;;;;;;12.57;4.60;;;25.90;95.80;;;;;;5120544;28;20124;-57
2023/06/10 12:17:37;;;;;;;9.43;4.05;;;25.80;93.70;;;;;;5120819;28;20069;-57
2023/06/10 12:20:08;;;;;;;8.98;4.10;;;25.60;93.80;;;;;;5120819;28;20078;-57
2023/06/10 12:22:41;;;;;;;9.05;3.95;;;25.80;94.20;;;;;;5121060;28;20059;-55
2023/06/10 12:25:08;;;;;;;11.45;5.63;;;25.70;93.50;;;;;;5120838;28;20040;-57
2023/06/10 12:27:34;;;;;;;8.77;4.32;;;25.80;94.90;;;;;;5120510;28;20122;-57
2023/06/10 12:30:05;;;;;;;8.85;4.68;;;25.80;97.10;;;;;;5121281;28;20143;-57
2023/06/10 12:32:45;;;;;;;10.35;4.85;;;25.60;99.90;;;;;;5120307;27;20487;-57
2023/06/10 12:35:17;;;;;;;11.43;5.13;;;25.50;99.90;;;;;;5120256;28;20059;-57
2023/06/10 12:37:55;;;;;;;10.88;5.53;;;25.60;99.90;;;;;;5119931;28;20047;-56
2023/06/10 12:40:28;;;;;;;9.25;4.93;;;25.70;99.90;;;;;;5120272;27;20072;-57